Caseville, Michigan
Current Conditions -  °F | °C
As of 12:58 AM on Friday 31 Oct 2014 (Local Time) from KBAX Reporting Station
Overcast Overcast  
Wind Chill: 39°   Ceiling: 5000
Heat Index: 43°   Visibility: 10mi
Dew Point: 41°   Wind: 7mph
Humidity: 92%   Direction: 220°SW
Pressure: 29.95"   Gusts: NA
Location:  43.94°N, 83.27°W
Report Text: KBAX 310458Z AUTO 22006KT 10SM OVC050 06/05 A2995 RMK AO2 T00610049
Loading
Personal Weather Stations






























Interactive Weather Map
Tropical Storm Tracking
New forecast layout! Learn more

10-Day Weather Forecast

Advertisements
Track Severe Weather on mobile